createdAt,value
2019-05-11T00:01:03.872Z,5.93
2019-05-11T00:03:32.845Z,5.70
2019-05-11T00:06:01.992Z,5.67
2019-05-11T00:08:30.671Z,5.97
2019-05-11T00:10:59.581Z,6.63
2019-05-11T00:13:28.601Z,5.70
2019-05-11T00:15:57.569Z,5.77
2019-05-11T00:18:26.485Z,5.60
2019-05-11T00:20:55.271Z,6.03
2019-05-11T00:23:24.234Z,5.73
2019-05-11T00:25:52.713Z,5.90
2019-05-11T00:28:21.280Z,6.67
2019-05-11T00:30:50.318Z,7.33
2019-05-11T00:33:19.053Z,7.40
2019-05-11T00:35:47.982Z,6.90
2019-05-11T00:38:17.318Z,6.87
2019-05-11T00:40:46.034Z,6.23
2019-05-11T00:43:15.090Z,6.67
2019-05-11T00:45:45.290Z,7.30
2019-05-11T00:48:15.004Z,7.73
2019-05-11T00:50:43.561Z,6.47
2019-05-11T00:53:12.336Z,7.40
2019-05-11T00:55:41.392Z,7.27
2019-05-11T00:58:10.830Z,7.23
2019-05-11T01:00:39.513Z,6.13
2019-05-11T01:03:08.194Z,6.10
2019-05-11T01:05:36.860Z,5.67
2019-05-11T01:08:05.745Z,5.50
2019-05-11T01:10:42.089Z,5.00
2019-05-11T01:13:05.398Z,5.30
2019-05-11T01:15:34.088Z,4.53
2019-05-11T01:18:03.046Z,6.27
2019-05-11T01:20:33.141Z,5.83
2019-05-11T01:23:01.794Z,5.93
2019-05-11T01:25:30.814Z,5.50
2019-05-11T01:27:59.766Z,4.97
2019-05-11T01:30:28.802Z,4.73
2019-05-11T01:32:57.426Z,4.83
2019-05-11T01:35:26.261Z,4.50
2019-05-11T01:37:55.376Z,5.87
2019-05-11T01:40:24.363Z,6.07
2019-05-11T01:42:53.780Z,5.70
2019-05-11T01:45:22.668Z,5.50
2019-05-11T01:47:51.650Z,5.80
2019-05-11T01:50:20.334Z,5.80
2019-05-11T01:52:49.262Z,4.93
2019-05-11T01:55:17.695Z,4.97
2019-05-11T01:57:46.428Z,6.00
2019-05-11T02:00:15.148Z,4.83
2019-05-11T02:02:44.054Z,4.93
2019-05-11T02:05:28.832Z,5.70
2019-05-11T02:07:59.441Z,7.00
2019-05-11T02:10:28.693Z,5.83
2019-05-11T02:12:57.364Z,5.37
2019-05-11T02:15:26.684Z,5.70
2019-05-11T02:17:55.199Z,5.30
2019-05-11T02:20:24.578Z,6.43
2019-05-11T02:22:53.154Z,5.43
2019-05-11T02:25:21.669Z,5.50
2019-05-11T02:27:50.182Z,6.20
2019-05-11T02:30:19.383Z,5.80
2019-05-11T02:32:48.137Z,5.73
2019-05-11T02:35:16.791Z,4.43
2019-05-11T02:37:46.500Z,5.77
2019-05-11T02:40:16.019Z,6.10
2019-05-11T02:42:46.449Z,6.47
2019-05-11T02:45:20.191Z,6.90
2019-05-11T02:47:48.996Z,8.00
2019-05-11T02:50:18.010Z,7.63
2019-05-11T02:52:47.798Z,7.43
2019-05-11T02:55:16.405Z,8.13
2019-05-11T02:57:45.027Z,8.07
2019-05-11T03:00:17.869Z,7.37
2019-05-11T03:02:46.492Z,6.87
2019-05-11T03:05:18.040Z,8.00
2019-05-11T03:07:47.746Z,7.63
2019-05-11T03:10:16.917Z,7.63
2019-05-11T03:12:45.876Z,6.70
2019-05-11T03:15:14.997Z,6.43
2019-05-11T03:17:44.009Z,6.33
2019-05-11T03:20:13.021Z,7.37
2019-05-11T03:22:42.028Z,5.93
2019-05-11T03:25:11.302Z,6.90
2019-05-11T03:27:40.711Z,6.10
2019-05-11T03:30:09.982Z,6.77
2019-05-11T03:32:39.186Z,6.87
2019-05-11T03:35:09.120Z,7.13
2019-05-11T03:37:39.065Z,5.87
2019-05-11T03:40:09.193Z,6.93
2019-05-11T03:42:37.863Z,6.57
2019-05-11T03:45:08.203Z,7.30
2019-05-11T03:47:36.834Z,6.73
2019-05-11T03:50:06.040Z,5.80
2019-05-11T03:52:35.071Z,5.70
2019-05-11T03:55:03.977Z,5.43
2019-05-11T03:57:32.670Z,5.40
2019-05-11T04:00:01.579Z,5.20
2019-05-11T04:02:31.785Z,5.93
2019-05-11T04:05:00.853Z,5.07
2019-05-11T04:07:30.618Z,5.40
2019-05-11T04:09:59.837Z,5.27
2019-05-11T04:12:34.756Z,5.83
2019-05-11T04:14:59.145Z,5.30
2019-05-11T04:17:28.568Z,5.50
2019-05-11T04:19:58.558Z,5.73
2019-05-11T04:22:27.568Z,4.90
2019-05-11T04:24:56.301Z,6.13
2019-05-11T04:27:25.087Z,4.80
2019-05-11T04:29:53.992Z,5.20
2019-05-11T04:32:25.074Z,5.20
2019-05-11T04:34:53.772Z,4.97
2019-05-11T04:37:22.981Z,4.93
2019-05-11T04:39:52.252Z,6.07
2019-05-11T04:42:21.700Z,5.30
2019-05-11T04:44:52.404Z,5.90
2019-05-11T04:47:21.410Z,5.30
2019-05-11T04:49:50.131Z,6.40
2019-05-11T04:52:19.062Z,4.90
2019-05-11T04:54:48.979Z,5.40
2019-05-11T04:57:17.732Z,5.00
2019-05-11T04:59:46.438Z,5.47
2019-05-11T05:02:15.318Z,5.60
2019-05-11T05:04:44.273Z,5.30
2019-05-11T05:07:16.507Z,4.93
2019-05-11T05:09:44.770Z,5.03
2019-05-11T05:12:15.637Z,5.93
2019-05-11T05:14:44.518Z,4.50
2019-05-11T05:17:13.202Z,4.53
2019-05-11T05:19:42.158Z,4.80
2019-05-11T05:22:11.658Z,5.30
2019-05-11T05:24:41.274Z,4.63
2019-05-11T05:27:11.041Z,4.17
2019-05-11T05:29:40.321Z,4.20
2019-05-11T05:32:08.992Z,4.57
2019-05-11T05:34:37.768Z,4.40
2019-05-11T05:37:07.107Z,4.10
2019-05-11T05:39:37.013Z,4.30
2019-05-11T05:42:05.870Z,4.00
2019-05-11T05:44:34.635Z,3.80
2019-05-11T05:47:03.523Z,3.90
2019-05-11T05:49:32.583Z,4.13
2019-05-11T05:52:01.768Z,3.30
2019-05-11T05:54:30.824Z,3.40
2019-05-11T05:57:00.303Z,3.33
2019-05-11T05:59:29.120Z,3.37
2019-05-11T06:01:58.699Z,3.30
2019-05-11T06:04:28.287Z,3.30
2019-05-11T06:06:57.585Z,3.13
2019-05-11T06:09:29.972Z,2.87
2019-05-11T06:11:58.731Z,3.00
2019-05-11T06:14:29.738Z,3.17
2019-05-11T06:16:59.027Z,3.10
2019-05-11T06:19:28.047Z,3.10
2019-05-11T06:21:56.758Z,2.80
2019-05-11T06:24:26.289Z,2.97
2019-05-11T06:26:55.234Z,3.30
2019-05-11T06:29:25.491Z,3.57
2019-05-11T06:31:54.579Z,3.00
2019-05-11T06:34:25.922Z,2.87
2019-05-11T06:36:55.560Z,3.10
2019-05-11T06:39:24.749Z,2.70
2019-05-11T06:41:53.515Z,2.80
2019-05-11T06:44:22.822Z,2.73
2019-05-11T06:46:51.911Z,3.23
2019-05-11T06:49:20.980Z,3.10
2019-05-11T06:51:50.245Z,2.90
2019-05-11T06:54:19.598Z,2.67
2019-05-11T06:56:48.333Z,2.53
2019-05-11T06:59:17.180Z,2.80
2019-05-11T07:01:45.856Z,2.77
2019-05-11T07:04:14.976Z,2.50
2019-05-11T07:06:44.035Z,3.00
2019-05-11T07:09:13.424Z,2.93
2019-05-11T07:11:42.956Z,2.83
2019-05-11T07:14:20.493Z,2.73
2019-05-11T07:16:43.036Z,2.77
2019-05-11T07:19:14.889Z,3.20
2019-05-11T07:21:43.608Z,2.70
2019-05-11T07:24:15.255Z,2.70
2019-05-11T07:26:44.930Z,2.60
2019-05-11T07:29:14.137Z,3.03
2019-05-11T07:31:43.249Z,2.40
2019-05-11T07:34:18.373Z,2.73
2019-05-11T07:36:47.757Z,2.73
2019-05-11T07:39:18.656Z,2.10
2019-05-11T07:41:48.280Z,2.80
2019-05-11T07:44:19.100Z,2.47
2019-05-11T07:46:50.373Z,2.80
2019-05-11T07:49:23.207Z,2.60
2019-05-11T07:51:54.050Z,2.60
2019-05-11T07:54:23.661Z,2.40
2019-05-11T07:56:53.871Z,2.60
2019-05-11T07:59:23.344Z,3.03
2019-05-11T08:01:52.392Z,2.60
2019-05-11T08:04:23.906Z,3.10
2019-05-11T08:06:55.674Z,2.67
2019-05-11T08:09:28.067Z,2.63
2019-05-11T08:11:58.498Z,2.80
2019-05-11T08:14:31.332Z,2.93
2019-05-11T08:17:01.770Z,2.60
2019-05-11T08:19:30.908Z,2.40
2019-05-11T08:22:01.065Z,2.50
2019-05-11T08:24:42.517Z,2.60
2019-05-11T08:27:14.574Z,2.50
2019-05-11T08:29:44.716Z,2.70
2019-05-11T08:32:18.309Z,2.87
2019-05-11T08:34:49.062Z,2.50
2019-05-11T08:37:19.025Z,3.00
2019-05-11T08:39:48.295Z,1.97
2019-05-11T08:42:17.836Z,2.10
2019-05-11T08:44:48.302Z,2.70
2019-05-11T08:47:17.799Z,2.60
2019-05-11T08:49:48.478Z,2.77
2019-05-11T08:52:18.628Z,2.30
2019-05-11T08:54:48.767Z,2.53
2019-05-11T08:57:18.080Z,2.43
2019-05-11T08:59:48.460Z,2.47
2019-05-11T09:02:18.593Z,2.40
2019-05-11T09:04:48.474Z,2.50
2019-05-11T09:07:18.426Z,2.60
2019-05-11T09:09:48.399Z,2.47
2019-05-11T09:12:18.428Z,2.80
2019-05-11T09:14:47.816Z,2.70
2019-05-11T09:17:18.264Z,2.97
2019-05-11T09:19:48.051Z,2.50
2019-05-11T09:22:18.726Z,2.90
2019-05-11T09:24:47.877Z,2.80
2019-05-11T09:27:18.426Z,3.10
2019-05-11T09:29:49.100Z,3.07
2019-05-11T09:32:19.603Z,2.63
2019-05-11T09:34:48.567Z,3.13
2019-05-11T09:37:18.513Z,3.10
2019-05-11T09:39:49.868Z,3.37
2019-05-11T09:42:19.647Z,3.03
2019-05-11T09:44:48.638Z,3.10
2019-05-11T09:47:18.922Z,2.90
2019-05-11T09:49:50.658Z,3.17
2019-05-11T09:52:19.152Z,3.00
2019-05-11T09:54:50.313Z,3.27
2019-05-11T09:57:19.314Z,3.50
2019-05-11T09:59:51.251Z,5.30
2019-05-11T10:02:21.130Z,3.93
2019-05-11T10:04:50.025Z,3.77
2019-05-11T10:07:19.900Z,3.67
2019-05-11T10:09:49.266Z,4.07
2019-05-11T10:12:18.201Z,4.23
2019-05-11T10:14:48.585Z,5.47
2019-05-11T10:17:18.225Z,5.07
2019-05-11T10:19:49.522Z,4.73
2019-05-11T10:22:18.547Z,4.10
2019-05-11T10:24:48.295Z,4.87
2019-05-11T10:27:18.946Z,4.90
2019-05-11T10:29:48.341Z,4.00
2019-05-11T10:32:18.386Z,4.40
2019-05-11T10:34:47.954Z,4.83
2019-05-11T10:37:17.702Z,4.20
2019-05-11T10:39:48.823Z,5.40
2019-05-11T10:42:18.594Z,4.13
2019-05-11T10:44:47.939Z,4.43
2019-05-11T10:47:18.458Z,4.80
2019-05-11T10:49:48.471Z,4.07
2019-05-11T10:52:18.005Z,4.60
2019-05-11T10:54:47.804Z,4.37
2019-05-11T10:57:18.737Z,3.97
2019-05-11T10:59:48.901Z,4.37
2019-05-11T11:02:18.488Z,3.83
2019-05-11T11:04:49.753Z,4.23
2019-05-11T11:07:19.467Z,4.00
2019-05-11T11:09:49.153Z,3.83
2019-05-11T11:12:18.824Z,4.43
2019-05-11T11:14:48.291Z,6.47
2019-05-11T11:17:19.176Z,5.63
2019-05-11T11:19:48.848Z,5.13
2019-05-11T11:22:36.141Z,5.50
2019-05-11T11:24:48.522Z,5.00
2019-05-11T11:27:18.464Z,6.07
2019-05-11T11:29:47.651Z,6.10
2019-05-11T11:32:20.118Z,6.93
2019-05-11T11:34:49.063Z,8.60
2019-05-11T11:37:20.556Z,6.90
2019-05-11T11:39:49.458Z,6.57
2019-05-11T11:42:18.296Z,7.27
2019-05-11T11:44:48.343Z,6.70
2019-05-11T11:47:21.411Z,7.80
2019-05-11T11:49:48.748Z,7.23
2019-05-11T11:52:21.351Z,7.43
2019-05-11T11:54:52.919Z,6.57
2019-05-11T11:57:21.863Z,7.90
2019-05-11T11:59:50.980Z,6.50
2019-05-11T12:02:20.223Z,6.70
2019-05-11T12:04:49.137Z,6.83
2019-05-11T12:07:18.563Z,5.77
2019-05-11T12:12:24.630Z,6.03
2019-05-11T12:14:55.347Z,6.33
2019-05-11T12:17:28.474Z,6.30
2019-05-11T12:19:58.556Z,9.23
2019-05-11T12:22:29.182Z,7.67
2019-05-11T12:24:59.058Z,7.90
2019-05-11T12:27:30.852Z,7.00
2019-05-11T12:29:59.717Z,6.33
2019-05-11T12:32:45.616Z,6.77
2019-05-11T12:35:15.235Z,6.50
2019-05-11T12:37:48.508Z,6.47
2019-05-11T12:40:19.358Z,6.00
2019-05-11T12:42:49.318Z,6.20
2019-05-11T12:45:19.003Z,6.20
2019-05-11T12:47:48.510Z,6.63
2019-05-11T12:50:19.514Z,5.73
2019-05-11T12:52:49.233Z,5.60
2019-05-11T12:55:18.338Z,5.13
2019-05-11T12:57:48.188Z,4.63
2019-05-11T13:00:19.017Z,6.67
2019-05-11T13:02:48.651Z,6.67
2019-05-11T13:05:18.126Z,4.93
2019-05-11T13:07:48.152Z,4.63
2019-05-11T13:10:18.902Z,3.83
2019-05-11T13:12:49.450Z,4.47
2019-05-11T13:15:21.132Z,4.17
2019-05-11T13:17:51.667Z,3.80
2019-05-11T13:20:21.035Z,3.93
2019-05-11T13:22:50.158Z,3.67
2019-05-11T13:25:18.898Z,4.50
2019-05-11T13:27:49.346Z,4.37
2019-05-11T13:30:19.448Z,3.70
2019-05-11T13:32:49.379Z,4.33
2019-05-11T13:35:19.420Z,5.10
2019-05-11T13:37:48.377Z,5.73
2019-05-11T13:40:18.806Z,4.77
2019-05-11T13:42:49.272Z,3.70
2019-05-11T13:45:18.948Z,4.07
2019-05-11T13:47:55.269Z,5.67
2019-05-11T13:50:19.181Z,6.33
2019-05-11T13:52:52.810Z,4.93
2019-05-11T13:55:22.059Z,3.83
2019-05-11T13:57:51.340Z,4.00
2019-05-11T14:00:21.573Z,4.03
2019-05-11T14:02:50.790Z,4.60
2019-05-11T14:05:20.107Z,4.37
2019-05-11T14:07:49.116Z,4.00
2019-05-11T14:10:19.295Z,4.03
2019-05-11T14:12:48.570Z,4.77
2019-05-11T14:15:18.847Z,5.13
2019-05-11T14:17:48.786Z,4.20
2019-05-11T14:20:19.307Z,4.43
2019-05-11T14:22:48.895Z,4.87
2019-05-11T14:25:19.989Z,4.40
2019-05-11T14:27:49.173Z,4.73
2019-05-11T14:30:19.250Z,5.00
2019-05-11T14:32:48.691Z,3.97
2019-05-11T14:35:18.863Z,4.37
2019-05-11T14:37:48.786Z,3.87
2019-05-11T14:40:18.015Z,4.40
2019-05-11T14:42:48.967Z,3.77
2019-05-11T14:45:21.417Z,3.77
2019-05-11T14:47:50.449Z,4.13
2019-05-11T14:50:19.550Z,4.17
2019-05-11T14:52:49.371Z,4.30
2019-05-11T14:55:18.561Z,4.30
2019-05-11T14:57:48.639Z,4.23
2019-05-11T15:00:21.123Z,3.80
2019-05-11T15:02:50.180Z,4.80
2019-05-11T15:05:21.543Z,4.43
2019-05-11T15:07:52.833Z,4.43
2019-05-11T15:10:23.271Z,3.83
2019-05-11T15:12:52.096Z,3.57
2019-05-11T15:15:21.385Z,4.77
2019-05-11T15:17:50.894Z,3.80
2019-05-11T15:20:20.163Z,4.20
2019-05-11T15:22:49.122Z,3.80
2019-05-11T15:25:19.959Z,3.30
2019-05-11T15:27:52.373Z,3.53
2019-05-11T15:30:52.659Z,3.40
2019-05-11T15:34:01.633Z,3.40
2019-05-11T15:36:54.300Z,3.00
2019-05-11T15:39:54.434Z,2.90
2019-05-11T15:42:41.367Z,2.97
2019-05-11T15:45:27.535Z,2.80
2019-05-11T15:48:06.111Z,2.93
2019-05-11T15:50:48.628Z,2.83
2019-05-11T15:53:31.797Z,2.93
2019-05-11T15:56:31.410Z,3.00
2019-05-11T15:59:08.901Z,2.40
2019-05-11T16:01:45.528Z,2.50
2019-05-11T16:04:34.907Z,2.73
2019-05-11T16:07:20.275Z,2.87
2019-05-11T16:10:05.341Z,2.67
2019-05-11T16:12:48.346Z,3.10
2019-05-11T16:15:35.531Z,3.20
2019-05-11T16:21:21.682Z,4.67
2019-05-11T16:24:10.611Z,4.57
2019-05-11T16:27:28.444Z,3.30
2019-05-11T16:30:07.762Z,3.30
2019-05-11T16:33:04.451Z,3.17
2019-05-11T16:35:50.475Z,2.93
2019-05-11T16:38:43.424Z,2.77
2019-05-11T16:41:39.604Z,2.80
2019-05-11T16:44:48.320Z,3.80
2019-05-11T16:48:07.918Z,2.63
2019-05-11T16:51:04.271Z,2.50
2019-05-11T16:54:03.648Z,3.10
2019-05-11T16:57:22.369Z,2.60
2019-05-11T17:00:00.303Z,2.70
2019-05-11T17:02:49.069Z,2.70
2019-05-11T17:05:38.281Z,2.63
2019-05-11T17:09:13.331Z,2.63
2019-05-11T17:15:21.016Z,2.87
2019-05-11T17:18:15.855Z,2.53
2019-05-11T17:21:04.950Z,2.70
2019-05-11T17:24:18.358Z,2.57
2019-05-11T17:27:48.721Z,2.93
2019-05-11T17:30:39.017Z,2.83
2019-05-11T17:33:38.371Z,2.63
2019-05-11T17:36:37.550Z,2.63
2019-05-11T17:39:20.508Z,2.60
2019-05-11T17:42:21.463Z,2.90
2019-05-11T17:45:18.922Z,2.13
2019-05-11T17:55:00.423Z,3.73
2019-05-11T17:58:19.309Z,3.57
2019-05-11T18:04:20.074Z,3.60
2019-05-11T18:07:27.707Z,3.27
2019-05-11T18:13:45.327Z,3.00
2019-05-11T18:30:47.988Z,2.50
2019-05-11T18:33:34.639Z,2.60
2019-05-11T18:46:09.476Z,2.43
2019-05-11T18:48:38.765Z,2.30
2019-05-11T18:51:08.687Z,2.63
2019-05-11T18:53:37.748Z,2.60
2019-05-11T18:56:08.658Z,2.43
2019-05-11T18:58:38.399Z,2.53
2019-05-11T19:01:07.835Z,2.67
2019-05-11T19:03:38.477Z,2.97
2019-05-11T19:06:08.874Z,2.70
2019-05-11T19:08:38.470Z,2.50
2019-05-11T19:11:09.249Z,3.00
2019-05-11T19:13:38.805Z,2.83
2019-05-11T19:16:08.629Z,2.80
2019-05-11T19:18:38.783Z,2.70
2019-05-11T19:21:09.244Z,2.90
2019-05-11T19:23:38.112Z,3.00
2019-05-11T19:26:08.385Z,2.87
2019-05-11T19:28:38.519Z,3.07
2019-05-11T19:31:08.382Z,3.10
2019-05-11T19:33:39.090Z,3.03
2019-05-11T19:38:47.771Z,3.70
2019-05-11T19:43:57.705Z,3.80
2019-05-11T19:46:28.066Z,3.47
2019-05-11T19:48:57.937Z,3.87
2019-05-11T19:51:28.919Z,3.17
2019-05-11T19:53:57.636Z,3.07
2019-05-11T19:56:28.934Z,3.37
2019-05-11T19:58:58.096Z,3.07
2019-05-11T20:01:27.905Z,2.73
2019-05-11T20:03:57.212Z,2.93
2019-05-11T20:09:08.205Z,3.50
2019-05-11T20:11:38.365Z,3.53
2019-05-11T20:14:08.055Z,3.57
2019-05-11T20:19:18.770Z,3.10
2019-05-11T20:21:48.550Z,3.63
2019-05-11T20:24:18.653Z,3.90
2019-05-11T20:26:47.435Z,3.50
2019-05-11T20:29:16.462Z,4.47
2019-05-11T20:31:45.464Z,3.97
2019-05-11T20:36:53.821Z,3.57
2019-05-11T20:39:22.554Z,3.70
2019-05-11T20:41:51.180Z,4.80
2019-05-11T20:44:19.781Z,5.43
2019-05-11T20:46:48.833Z,4.80
2019-05-11T20:49:17.442Z,4.87
2019-05-11T20:51:48.364Z,5.40
2019-05-11T20:54:17.651Z,5.40
2019-05-11T20:59:28.779Z,5.33
2019-05-11T21:01:58.685Z,5.53
2019-05-11T21:04:28.419Z,5.03
2019-05-11T21:06:58.099Z,3.93
2019-05-11T21:09:28.731Z,3.37
2019-05-11T21:11:58.792Z,2.70
2019-05-11T21:14:28.809Z,2.60
2019-05-11T21:16:58.630Z,2.20
2019-05-11T21:19:28.330Z,2.10
2019-05-11T21:21:59.045Z,2.10
2019-05-11T21:24:28.116Z,2.40
2019-05-11T21:26:58.475Z,2.27
2019-05-11T21:29:31.277Z,2.33
2019-05-11T21:31:59.101Z,2.80
2019-05-11T21:34:28.219Z,2.30
2019-05-11T21:36:57.721Z,2.40
2019-05-11T21:39:28.731Z,1.70
2019-05-11T21:44:37.202Z,1.40
2019-05-11T21:47:07.717Z,1.50
2019-05-11T21:49:37.826Z,1.80
2019-05-11T21:52:07.807Z,1.90
2019-05-11T21:54:38.672Z,2.00
2019-05-11T21:57:08.242Z,1.90
2019-05-11T21:59:37.950Z,1.90
2019-05-11T22:02:10.645Z,1.70
2019-05-11T22:04:38.868Z,1.90
2019-05-11T22:07:08.218Z,2.17
2019-05-11T22:09:38.384Z,1.90
2019-05-11T22:12:07.836Z,2.10
2019-05-11T22:14:38.473Z,2.03
2019-05-11T22:17:07.818Z,1.90
2019-05-11T22:19:40.265Z,1.90
2019-05-11T22:22:20.663Z,1.50
2019-05-11T22:24:37.784Z,1.70
2019-05-11T22:27:07.990Z,1.60
2019-05-11T22:29:37.869Z,1.93
2019-05-11T22:32:07.181Z,1.60
2019-05-11T22:34:37.856Z,1.60
2019-05-11T22:37:08.629Z,1.80
2019-05-11T22:39:38.131Z,1.90
2019-05-11T22:42:07.904Z,1.63
2019-05-11T22:44:38.611Z,1.73
2019-05-11T22:47:08.942Z,2.10
2019-05-11T22:49:38.091Z,1.57
2019-05-11T22:52:08.626Z,1.60
2019-05-11T22:54:38.424Z,1.80
2019-05-11T22:57:08.185Z,1.80
2019-05-11T22:59:38.496Z,2.10
2019-05-11T23:02:10.720Z,1.90
2019-05-11T23:04:38.992Z,2.00
2019-05-11T23:07:08.075Z,1.77
2019-05-11T23:09:38.121Z,2.23
2019-05-11T23:12:09.086Z,2.00
2019-05-11T23:14:37.808Z,2.10
2019-05-11T23:17:08.119Z,1.90
2019-05-11T23:19:39.300Z,1.80
2019-05-11T23:22:09.942Z,2.13
2019-05-11T23:24:39.890Z,1.87
2019-05-11T23:27:08.940Z,1.83
2019-05-11T23:29:38.412Z,2.00
2019-05-11T23:32:08.631Z,2.07
2019-05-11T23:34:38.809Z,2.23
2019-05-11T23:37:08.009Z,1.97
2019-05-11T23:39:38.760Z,2.47
2019-05-11T23:42:08.180Z,2.27
2019-05-11T23:44:37.429Z,2.20
2019-05-11T23:47:06.034Z,1.83
2019-05-11T23:49:34.629Z,2.50
2019-05-11T23:52:03.611Z,1.90
2019-05-11T23:54:33.166Z,2.20
2019-05-11T23:57:02.067Z,2.07
